Colver, PA

7:43 PM EDT on August 30, 2015 (GMT -0400)
Colver | | Change Station
CLOSE
Current Station
Personal Weather Station
Location: Colver Streets, PA
Elevation: 2149 ft
Nearby Weather Stations

Elev 2149 ft 40.54 °N, 78.79 °W | Updated 14 minutes ago

Mostly Cloudy
Mostly Cloudy
72.7 °F
Feels Like 74 °F
N
0.0
Wind Variable Wind from WSW
Gusts 1.0 mph

Today
High -- | Low -- °F
--% Chance of Precip.
Yesterday
High -- | Low -- °F
Precip. -- in
6:40 AM 7:50 PM
Full, 98% visible
Pressure 30.09 in
Visibility 10.0 miles
Clouds Overcast 12000 ft
Heat Index 74 °F
Dew Point 65 °F
Humidity 77%
Rainfall 0.17 in
Snow Depth Not available.
UV 0 out of 12
Pollen 9.70 out of 12
Air Quality Not available.
Flu Activity Not available.
METAR KJST 302254Z AUTO 22004KT 10SM OVC120 24/16 A3013 RMK AO2 SLP190 T02440156
Pressure 30.09 in
Visibility 10.0 miles
Clouds Overcast 12000 ft
Heat Index 74 °F
Dew Point 65 °F
Humidity 77%
Rainfall 0.17 in
Snow Depth Not available.
UV 0 out of 12
Pollen 9.70 out of 12
Air Quality Not available.
Flu Activity Not available.
METAR KJST 302254Z AUTO 22004KT 10SM OVC120 24/16 A3013 RMK AO2 SLP190 T02440156

10-Day Weather Forecast

×

Almanac

Astronomy

Aug. 30, 2015 Rise Set
Actual Time
Civil Twilight
Nautical Twilight
Astronomical Twilight
Moon
Length of Visible Light
Length of Day
Tomorrow will be .
, % of the Moon is Illuminated

Today's Extremes

State Highs State Lows

Community

WunderPhotos

Upload Photos

1,851,095 photos uploaded!

WunderBlogs® & News

Nearby

Air Quality

  Air Quality AQ Index Pollutant
Not available.

Snow Depth

Station Depth Elevation

Earthquake Activity

City Distance Mag. Time & Date
Minimum magnitude displayed is 2.5.

Coastal Water Temperatures

Place Temperature

Stations

Nearby Weather Stations

Station Location Temp. Windchill Dew Point Humidity Wind Precip. Elev Updated Type